createdAt,value
2019-05-17T00:01:47.266Z,77.70
2019-05-17T00:04:17.486Z,78.70
2019-05-17T00:06:47.772Z,78.30
2019-05-17T00:09:18.125Z,78.50
2019-05-17T00:11:47.963Z,78.40
2019-05-17T00:14:18.156Z,78.30
2019-05-17T00:16:48.263Z,78.30
2019-05-17T00:19:18.114Z,78.40
2019-05-17T00:21:48.301Z,77.90
2019-05-17T00:24:18.453Z,78.00
2019-05-17T00:26:49.420Z,77.70
2019-05-17T00:29:20.675Z,78.10
2019-05-17T00:31:50.741Z,78.80
2019-05-17T00:34:22.008Z,79.10
2019-05-17T00:36:52.354Z,79.70
2019-05-17T00:39:22.560Z,79.60
2019-05-17T00:41:52.623Z,79.60
2019-05-17T00:44:22.750Z,79.70
2019-05-17T00:46:52.691Z,79.50
2019-05-17T00:49:26.513Z,79.90
2019-05-17T00:52:27.329Z,80.20
2019-05-17T00:55:12.276Z,80.10
2019-05-17T00:58:00.133Z,79.90
2019-05-17T01:00:41.757Z,79.40
2019-05-17T01:03:24.104Z,79.70
2019-05-17T01:06:18.930Z,79.40
2019-05-17T01:09:04.192Z,79.50
2019-05-17T01:11:39.416Z,79.50
2019-05-17T01:14:23.785Z,79.50
2019-05-17T01:17:11.106Z,79.70
2019-05-17T01:19:51.221Z,80.00
2019-05-17T01:22:36.670Z,80.50
2019-05-17T01:25:13.243Z,81.30
2019-05-17T01:27:49.483Z,81.40
2019-05-17T01:30:42.893Z,81.50
2019-05-17T01:33:02.325Z,81.60
2019-05-17T01:35:43.122Z,82.00
2019-05-17T01:38:26.903Z,82.40
2019-05-17T01:41:01.584Z,83.00
2019-05-17T01:43:42.703Z,82.80
2019-05-17T01:46:18.254Z,82.90
2019-05-17T01:48:57.845Z,82.60
2019-05-17T01:51:37.004Z,82.30
2019-05-17T01:54:10.639Z,82.40
2019-05-17T01:56:46.220Z,82.60
2019-05-17T01:59:22.188Z,82.90
2019-05-17T02:02:01.581Z,83.40
2019-05-17T02:04:37.289Z,83.50
2019-05-17T02:07:06.923Z,83.30
2019-05-17T02:09:41.325Z,82.70
2019-05-17T02:12:17.435Z,82.70
2019-05-17T02:14:57.382Z,83.10
2019-05-17T02:17:37.383Z,82.90
2019-05-17T02:20:13.765Z,82.50
2019-05-17T02:22:51.518Z,82.30
2019-05-17T02:25:22.575Z,82.30
2019-05-17T02:27:56.270Z,82.20
2019-05-17T02:30:33.770Z,81.60
2019-05-17T02:33:04.048Z,81.10
2019-05-17T02:35:37.655Z,81.20
2019-05-17T02:38:09.645Z,82.40
2019-05-17T02:40:45.829Z,82.00
2019-05-17T02:43:19.366Z,82.40
2019-05-17T02:45:53.095Z,82.60
2019-05-17T02:48:27.058Z,82.90
2019-05-17T02:50:58.950Z,83.60
2019-05-17T02:53:33.442Z,84.00
2019-05-17T02:56:13.360Z,84.70
2019-05-17T02:58:47.039Z,85.20
2019-05-17T03:01:17.581Z,85.00
2019-05-17T03:03:58.112Z,83.80
2019-05-17T03:06:33.484Z,83.00
2019-05-17T03:09:12.278Z,82.70
2019-05-17T03:11:46.471Z,82.20
2019-05-17T03:14:22.934Z,82.00
2019-05-17T03:17:03.365Z,82.00
2019-05-17T03:19:39.482Z,82.30
2019-05-17T03:22:13.152Z,82.20
2019-05-17T03:24:46.566Z,82.20
2019-05-17T03:27:23.298Z,81.80
2019-05-17T03:29:55.701Z,81.50
2019-05-17T03:32:28.955Z,81.10
2019-05-17T03:35:07.022Z,81.10
2019-05-17T03:37:53.259Z,80.80
2019-05-17T03:41:03.577Z,80.30
2019-05-17T03:43:22.440Z,79.70
2019-05-17T03:46:15.979Z,80.30
2019-05-17T03:48:53.141Z,80.40
2019-05-17T03:51:33.681Z,80.40
2019-05-17T03:54:34.580Z,80.40
2019-05-17T03:57:06.926Z,80.50
2019-05-17T04:00:13.203Z,80.50
2019-05-17T04:02:37.974Z,80.40
2019-05-17T04:05:17.218Z,80.40
2019-05-17T04:07:57.075Z,80.30
2019-05-17T04:10:44.000Z,80.20
2019-05-17T04:13:28.908Z,80.00
2019-05-17T04:16:05.884Z,80.40
2019-05-17T04:18:44.988Z,81.20
2019-05-17T04:21:34.466Z,81.40
2019-05-17T04:24:32.441Z,81.20
2019-05-17T04:27:08.997Z,81.20
2019-05-17T04:29:44.998Z,81.40
2019-05-17T04:32:15.123Z,82.20
2019-05-17T04:34:48.552Z,82.40
2019-05-17T04:37:45.246Z,82.10
2019-05-17T04:40:35.898Z,82.50
2019-05-17T04:43:18.103Z,83.00
2019-05-17T04:46:02.448Z,83.70
2019-05-17T04:48:43.508Z,83.40
2019-05-17T04:51:13.498Z,83.70
2019-05-17T04:54:15.172Z,84.00
2019-05-17T04:56:52.878Z,84.70
2019-05-17T04:59:28.786Z,84.90
2019-05-17T05:02:18.716Z,85.40
2019-05-17T05:04:53.525Z,85.60
2019-05-17T05:07:34.302Z,88.00
2019-05-17T05:10:13.443Z,87.80
2019-05-17T05:12:55.060Z,88.20
2019-05-17T05:16:13.262Z,88.60
2019-05-17T05:18:45.747Z,88.50
2019-05-17T05:21:23.178Z,87.80
2019-05-17T05:24:06.885Z,87.60
2019-05-17T05:26:33.891Z,88.00
2019-05-17T05:29:21.517Z,88.60
2019-05-17T05:32:02.676Z,87.80
2019-05-17T05:34:36.597Z,87.60
2019-05-17T05:37:16.973Z,88.00
2019-05-17T05:40:02.026Z,87.40
2019-05-17T05:42:36.158Z,87.00
2019-05-17T05:45:22.494Z,87.10
2019-05-17T05:48:13.918Z,86.80
2019-05-17T05:50:32.461Z,87.20
2019-05-17T05:53:18.509Z,86.60
2019-05-17T05:56:13.718Z,86.10
2019-05-17T06:01:32.566Z,85.80
2019-05-17T06:04:11.935Z,85.10
2019-05-17T06:07:03.690Z,84.10
2019-05-17T06:09:51.879Z,83.40
2019-05-17T06:12:39.503Z,83.40
2019-05-17T06:15:16.881Z,82.60
2019-05-17T06:18:03.868Z,81.80
2019-05-17T06:20:36.938Z,81.40
2019-05-17T06:23:27.883Z,80.60
2019-05-17T06:26:03.909Z,80.10
2019-05-17T06:28:51.887Z,80.50
2019-05-17T06:31:37.152Z,80.30
2019-05-17T06:34:06.475Z,79.70
2019-05-17T06:36:36.649Z,78.90
2019-05-17T06:39:08.311Z,78.00
2019-05-17T06:41:38.560Z,78.10
2019-05-17T06:44:12.395Z,76.70
2019-05-17T06:47:02.608Z,76.50
2019-05-17T06:49:33.174Z,75.30
2019-05-17T06:52:03.739Z,74.80
2019-05-17T06:54:33.874Z,74.00
2019-05-17T06:57:04.039Z,73.20
2019-05-17T06:59:34.062Z,73.70
2019-05-17T07:02:04.279Z,72.70
2019-05-17T07:04:34.303Z,72.20
2019-05-17T07:07:23.323Z,72.50
2019-05-17T07:09:53.749Z,71.10
2019-05-17T07:12:24.120Z,70.60
2019-05-17T07:14:54.067Z,70.50
2019-05-17T07:17:24.741Z,68.90
2019-05-17T07:19:54.982Z,70.70
2019-05-17T07:22:25.184Z,70.00
2019-05-17T07:24:55.362Z,69.00
2019-05-17T07:27:38.701Z,67.50
2019-05-17T07:30:00.124Z,67.50
2019-05-17T07:32:31.330Z,68.60
2019-05-17T07:35:01.475Z,67.40
2019-05-17T07:37:31.711Z,65.40
2019-05-17T07:40:05.048Z,64.70
2019-05-17T07:42:34.032Z,64.60
2019-05-17T07:45:06.583Z,63.10
2019-05-17T07:47:36.994Z,63.20
2019-05-17T07:50:07.184Z,63.10
2019-05-17T07:52:39.677Z,62.70
2019-05-17T07:55:10.803Z,63.10
2019-05-17T07:57:41.294Z,61.20
2019-05-17T08:00:12.015Z,60.60
2019-05-17T08:02:42.933Z,60.10
2019-05-17T08:05:13.050Z,59.70
2019-05-17T08:07:43.572Z,59.20
2019-05-17T08:10:13.966Z,58.20
2019-05-17T08:12:44.116Z,58.20
2019-05-17T08:15:14.303Z,58.40
2019-05-17T08:17:44.241Z,57.80
2019-05-17T08:20:14.287Z,58.00
2019-05-17T08:22:44.460Z,56.80
2019-05-17T08:25:14.820Z,56.00
2019-05-17T08:27:45.060Z,56.10
2019-05-17T08:30:15.538Z,56.50
2019-05-17T08:32:45.787Z,57.20
2019-05-17T08:35:15.742Z,55.50
2019-05-17T08:37:45.955Z,55.00
2019-05-17T08:40:16.360Z,55.20
2019-05-17T08:42:46.717Z,54.90
2019-05-17T08:45:17.080Z,55.10
2019-05-17T08:47:49.855Z,54.40
2019-05-17T08:50:20.121Z,54.90
2019-05-17T08:52:50.528Z,54.00
2019-05-17T08:55:20.774Z,52.20
2019-05-17T08:57:51.134Z,52.80
2019-05-17T09:00:21.591Z,52.70
2019-05-17T09:02:51.651Z,53.10
2019-05-17T09:05:21.881Z,51.90
2019-05-17T09:07:52.298Z,52.20
2019-05-17T09:10:22.598Z,51.40
2019-05-17T09:12:52.824Z,52.50
2019-05-17T09:15:23.232Z,52.20
2019-05-17T09:17:53.292Z,50.80
2019-05-17T09:20:24.636Z,52.30
2019-05-17T09:22:55.014Z,50.90
2019-05-17T09:25:25.426Z,50.10
2019-05-17T09:27:55.735Z,48.80
2019-05-17T09:30:27.266Z,49.00
2019-05-17T09:33:00.129Z,49.70
2019-05-17T09:35:30.058Z,49.60
2019-05-17T09:38:00.639Z,49.20
2019-05-17T09:40:31.863Z,51.80
2019-05-17T09:43:02.147Z,51.60
2019-05-17T09:45:40.434Z,48.40
2019-05-17T09:48:11.014Z,49.10
2019-05-17T09:50:41.300Z,46.90
2019-05-17T09:53:11.542Z,46.90
2019-05-17T09:55:41.396Z,47.00
2019-05-17T09:58:12.586Z,47.10
2019-05-17T10:00:42.519Z,45.90
2019-05-17T10:03:12.795Z,44.40
2019-05-17T10:05:43.084Z,44.60
2019-05-17T10:08:13.342Z,44.70
2019-05-17T10:10:43.291Z,44.70
2019-05-17T10:13:13.641Z,44.90
2019-05-17T10:15:43.978Z,44.30
2019-05-17T10:18:14.278Z,44.30
2019-05-17T10:20:44.532Z,44.70
2019-05-17T10:23:14.845Z,43.50
2019-05-17T10:25:45.063Z,44.80
2019-05-17T10:28:15.266Z,43.30
2019-05-17T10:30:45.583Z,43.40
2019-05-17T10:33:15.870Z,42.80
2019-05-17T10:35:46.173Z,41.20
2019-05-17T10:38:16.093Z,42.30
2019-05-17T10:40:46.023Z,42.10
2019-05-17T10:43:16.259Z,41.70
2019-05-17T10:45:46.455Z,42.10
2019-05-17T10:48:16.699Z,40.60
2019-05-17T10:50:49.501Z,40.40
2019-05-17T10:53:20.413Z,41.60
2019-05-17T10:55:50.899Z,39.60
2019-05-17T10:58:21.405Z,40.20
2019-05-17T11:00:52.391Z,40.60
2019-05-17T11:03:22.611Z,38.10
2019-05-17T11:05:53.044Z,38.30
2019-05-17T11:08:23.236Z,38.60
2019-05-17T11:10:53.485Z,37.90
2019-05-17T11:13:23.743Z,38.80
2019-05-17T11:15:53.884Z,38.70
2019-05-17T11:18:24.099Z,39.10
2019-05-17T11:20:54.390Z,38.80
2019-05-17T11:23:24.679Z,37.00
2019-05-17T11:25:54.625Z,37.10
2019-05-17T11:28:24.805Z,37.70
2019-05-17T11:30:54.777Z,37.10
2019-05-17T11:33:26.035Z,36.80
2019-05-17T11:35:56.433Z,36.30
2019-05-17T11:38:26.769Z,36.30
2019-05-17T11:40:56.776Z,36.10
2019-05-17T11:43:26.873Z,37.10
2019-05-17T11:45:56.988Z,37.00
2019-05-17T11:48:27.180Z,38.00
2019-05-17T11:50:57.495Z,35.50
2019-05-17T11:53:27.453Z,34.90
2019-05-17T11:55:57.584Z,34.10
2019-05-17T11:58:27.890Z,35.00
2019-05-17T12:00:58.255Z,36.40
2019-05-17T12:03:28.526Z,34.90
2019-05-17T12:05:58.579Z,35.20
2019-05-17T12:08:28.826Z,33.40
2019-05-17T12:10:58.923Z,34.20
2019-05-17T12:13:29.141Z,32.70
2019-05-17T12:15:59.287Z,32.60
2019-05-17T12:18:29.553Z,33.00
2019-05-17T12:21:00.033Z,32.00
2019-05-17T12:23:31.771Z,30.90
2019-05-17T12:26:04.567Z,30.30
2019-05-17T12:28:37.864Z,31.10
2019-05-17T12:31:08.204Z,31.10
2019-05-17T12:33:38.355Z,32.30
2019-05-17T12:36:08.583Z,32.80
2019-05-17T12:38:38.579Z,31.90
2019-05-17T12:41:08.429Z,31.80
2019-05-17T12:43:38.325Z,30.10
2019-05-17T12:46:08.702Z,32.10
2019-05-17T12:48:40.195Z,30.30
2019-05-17T12:51:10.786Z,30.00
2019-05-17T12:53:42.197Z,30.50
2019-05-17T12:56:12.530Z,28.90
2019-05-17T12:58:42.989Z,28.90
2019-05-17T13:01:15.579Z,30.20
2019-05-17T13:03:48.382Z,30.10
2019-05-17T13:06:19.357Z,31.70
2019-05-17T13:08:49.956Z,29.40
2019-05-17T13:11:20.172Z,31.00
2019-05-17T13:13:50.273Z,30.30
2019-05-17T13:16:20.249Z,31.00
2019-05-17T13:18:50.159Z,31.30
2019-05-17T13:21:20.448Z,30.30
2019-05-17T13:23:50.762Z,32.20
2019-05-17T13:26:21.175Z,29.00
2019-05-17T13:28:51.381Z,30.40
2019-05-17T13:31:21.685Z,29.90
2019-05-17T13:33:51.989Z,30.80
2019-05-17T13:36:21.878Z,30.20
2019-05-17T13:38:52.074Z,30.50
2019-05-17T13:41:22.364Z,30.10
2019-05-17T13:43:52.614Z,29.70
2019-05-17T13:46:32.738Z,30.00
2019-05-17T13:48:54.549Z,29.90
2019-05-17T13:51:24.672Z,29.90
2019-05-17T13:53:54.686Z,28.80
2019-05-17T13:56:25.026Z,29.40
2019-05-17T13:58:54.937Z,31.10
2019-05-17T14:01:25.166Z,31.00
2019-05-17T14:03:55.874Z,31.70
2019-05-17T14:06:26.221Z,30.40
2019-05-17T14:08:56.338Z,30.10
2019-05-17T14:11:26.515Z,30.10
2019-05-17T14:13:56.722Z,29.90
2019-05-17T14:16:27.969Z,30.80
2019-05-17T14:18:58.273Z,31.80
2019-05-17T14:21:28.281Z,31.60
2019-05-17T14:23:59.485Z,32.20
2019-05-17T14:26:29.781Z,33.00
2019-05-17T14:28:59.747Z,32.60
2019-05-17T14:31:30.200Z,30.80
2019-05-17T14:34:00.293Z,32.70
2019-05-17T14:36:30.553Z,31.30
2019-05-17T14:39:01.127Z,31.70
2019-05-17T14:41:32.987Z,33.40
2019-05-17T14:44:03.085Z,33.00
2019-05-17T14:46:33.133Z,31.60
2019-05-17T14:49:03.274Z,33.40
2019-05-17T14:51:33.447Z,31.90
2019-05-17T14:54:19.038Z,31.40
2019-05-17T14:56:51.373Z,31.70
2019-05-17T14:59:54.712Z,31.80
2019-05-17T15:02:28.157Z,32.80
2019-05-17T15:04:58.392Z,31.20
2019-05-17T15:07:35.995Z,31.70
2019-05-17T15:10:07.948Z,30.80
2019-05-17T15:12:38.128Z,32.20
2019-05-17T15:15:08.435Z,33.10
2019-05-17T15:17:38.391Z,33.30
2019-05-17T15:20:08.768Z,33.90
2019-05-17T15:22:39.123Z,34.40
2019-05-17T15:25:09.039Z,35.20
2019-05-17T15:27:39.277Z,36.90
2019-05-17T15:30:12.214Z,36.10
2019-05-17T15:32:42.476Z,37.30
2019-05-17T15:35:13.751Z,38.60
2019-05-17T15:37:43.886Z,38.90
2019-05-17T15:40:15.604Z,39.60
2019-05-17T15:42:45.680Z,39.70
2019-05-17T15:45:16.104Z,40.20
2019-05-17T15:47:46.364Z,42.10
2019-05-17T15:50:17.113Z,41.80
2019-05-17T15:52:47.470Z,43.00
2019-05-17T15:55:17.896Z,42.90
2019-05-17T15:57:47.850Z,43.10
2019-05-17T16:00:18.402Z,44.30
2019-05-17T16:02:48.730Z,43.90
2019-05-17T16:05:18.735Z,43.70
2019-05-17T16:07:49.641Z,42.80
2019-05-17T16:10:20.684Z,41.80
2019-05-17T16:13:01.517Z,41.90
2019-05-17T16:15:22.342Z,41.90
2019-05-17T16:17:53.145Z,42.60
2019-05-17T16:20:23.355Z,43.00
2019-05-17T16:22:53.563Z,42.90
2019-05-17T16:25:23.702Z,42.70
2019-05-17T16:27:55.352Z,42.80
2019-05-17T16:30:26.012Z,43.40
2019-05-17T16:32:55.831Z,43.70
2019-05-17T16:35:27.153Z,43.20
2019-05-17T16:37:59.067Z,44.20
2019-05-17T16:40:29.415Z,44.30
2019-05-17T16:42:59.764Z,45.10
2019-05-17T16:45:30.110Z,45.40
2019-05-17T16:48:00.379Z,46.10
2019-05-17T16:50:30.616Z,46.70
2019-05-17T16:53:05.961Z,48.10
2019-05-17T16:55:32.994Z,47.60
2019-05-17T16:58:03.193Z,48.10
2019-05-17T17:00:46.232Z,49.10
2019-05-17T17:03:44.400Z,48.20
2019-05-17T17:05:59.534Z,48.10
2019-05-17T17:08:29.826Z,48.50
2019-05-17T17:10:59.717Z,48.30
2019-05-17T17:13:33.184Z,49.30
2019-05-17T17:16:03.143Z,49.00
2019-05-17T17:18:33.124Z,50.30
2019-05-17T17:21:03.473Z,51.20
2019-05-17T17:23:47.348Z,51.40
2019-05-17T17:26:18.003Z,51.70
2019-05-17T17:28:48.626Z,53.00
2019-05-17T17:31:19.136Z,52.70
2019-05-17T17:33:50.532Z,52.60
2019-05-17T17:36:21.906Z,52.60
2019-05-17T17:38:52.144Z,53.00
2019-05-17T17:41:22.460Z,53.70
2019-05-17T17:43:58.457Z,54.60
2019-05-17T17:46:24.904Z,55.50
2019-05-17T17:48:54.921Z,55.10
2019-05-17T17:51:25.276Z,55.20
2019-05-17T17:53:55.476Z,54.70
2019-05-17T17:56:25.819Z,55.00
2019-05-17T17:58:56.261Z,56.00
2019-05-17T18:01:26.193Z,57.30
2019-05-17T18:03:59.458Z,56.50
2019-05-17T18:06:31.395Z,56.60
2019-05-17T18:09:01.666Z,56.70
2019-05-17T18:11:33.898Z,56.70
2019-05-17T18:14:13.318Z,56.50
2019-05-17T18:16:39.848Z,56.50
2019-05-17T18:19:12.537Z,56.40
2019-05-17T18:21:45.136Z,56.50
2019-05-17T18:24:16.484Z,56.60
2019-05-17T18:26:46.658Z,56.40
2019-05-17T18:29:16.616Z,56.40
2019-05-17T18:31:46.653Z,56.40
2019-05-17T18:34:16.891Z,57.10
2019-05-17T18:36:47.088Z,57.70
2019-05-17T18:39:18.317Z,58.40
2019-05-17T18:41:48.410Z,58.70
2019-05-17T18:44:38.017Z,58.90
2019-05-17T18:47:08.285Z,59.30
2019-05-17T18:49:38.561Z,60.20
2019-05-17T18:52:08.839Z,60.30
2019-05-17T18:54:40.644Z,60.40
2019-05-17T18:57:10.897Z,60.80
2019-05-17T18:59:41.137Z,61.70
2019-05-17T19:02:11.374Z,61.70
2019-05-17T19:04:41.668Z,61.70
2019-05-17T19:07:11.923Z,62.00
2019-05-17T19:09:42.184Z,62.10
2019-05-17T19:12:12.377Z,62.50
2019-05-17T19:14:43.345Z,62.60
2019-05-17T19:17:13.390Z,62.70
2019-05-17T19:19:43.606Z,62.90
2019-05-17T19:22:13.593Z,62.90
2019-05-17T19:24:45.260Z,62.70
2019-05-17T19:27:15.566Z,62.40
2019-05-17T19:29:45.827Z,62.40
2019-05-17T19:32:15.768Z,62.00
2019-05-17T19:34:46.033Z,62.00
2019-05-17T19:37:16.038Z,61.80
2019-05-17T19:39:49.725Z,61.10
2019-05-17T19:42:22.712Z,60.80
2019-05-17T19:44:59.210Z,60.00
2019-05-17T19:47:25.208Z,60.50
2019-05-17T19:49:55.313Z,61.00
2019-05-17T19:52:25.465Z,61.30
2019-05-17T19:54:57.434Z,61.40
2019-05-17T19:57:27.619Z,61.40
2019-05-17T19:59:57.563Z,61.70
2019-05-17T20:02:27.773Z,61.70
2019-05-17T20:04:58.013Z,62.50
2019-05-17T20:07:38.064Z,62.80
2019-05-17T20:10:05.810Z,63.00
2019-05-17T20:12:36.958Z,63.30
2019-05-17T20:15:17.226Z,63.20
2019-05-17T20:17:40.092Z,63.30
2019-05-17T20:20:10.532Z,63.40
2019-05-17T20:22:40.598Z,64.30
2019-05-17T20:25:11.095Z,64.30
2019-05-17T20:27:43.722Z,64.40
2019-05-17T20:30:14.580Z,64.30
2019-05-17T20:32:44.522Z,64.30
2019-05-17T20:35:17.844Z,64.80
2019-05-17T20:37:46.995Z,64.40
2019-05-17T20:40:18.320Z,64.80
2019-05-17T20:42:48.665Z,64.90
2019-05-17T20:45:32.110Z,65.60
2019-05-17T20:47:50.929Z,65.90
2019-05-17T20:50:21.499Z,66.00
2019-05-17T20:52:51.746Z,66.00
2019-05-17T20:55:22.089Z,66.40
2019-05-17T20:57:52.284Z,66.50
2019-05-17T21:00:22.536Z,67.00
2019-05-17T21:02:55.028Z,67.20
2019-05-17T21:05:25.617Z,67.40
2019-05-17T21:07:55.891Z,67.30
2019-05-17T21:10:26.124Z,67.30
2019-05-17T21:12:57.295Z,67.50
2019-05-17T21:15:27.201Z,67.90
2019-05-17T21:17:57.264Z,68.00
2019-05-17T21:20:27.397Z,68.20
2019-05-17T21:22:57.754Z,68.20
2019-05-17T21:25:28.173Z,68.00
2019-05-17T21:27:58.331Z,67.60
2019-05-17T21:30:28.621Z,67.50
2019-05-17T21:32:58.841Z,67.90
2019-05-17T21:35:28.743Z,67.20
2019-05-17T21:37:59.028Z,67.50
2019-05-17T21:40:28.945Z,67.50
2019-05-17T21:43:00.107Z,67.80
2019-05-17T21:45:30.398Z,67.80
2019-05-17T21:48:00.552Z,67.80
2019-05-17T21:50:30.683Z,67.50
2019-05-17T21:53:00.883Z,67.90
2019-05-17T21:55:31.102Z,67.50
2019-05-17T21:58:01.405Z,68.00
2019-05-17T22:00:53.195Z,67.70
2019-05-17T22:03:23.791Z,67.60
2019-05-17T22:05:53.955Z,67.70
2019-05-17T22:08:23.909Z,67.60
2019-05-17T22:10:54.369Z,67.80
2019-05-17T22:13:25.472Z,67.80
2019-05-17T22:15:55.712Z,67.90
2019-05-17T22:18:25.819Z,68.00
2019-05-17T22:20:56.056Z,68.30
2019-05-17T22:23:25.886Z,68.30
2019-05-17T22:25:56.160Z,68.70
2019-05-17T22:28:26.190Z,69.20
2019-05-17T22:30:56.030Z,69.50
2019-05-17T22:33:26.899Z,70.10
2019-05-17T22:35:57.089Z,70.10
2019-05-17T22:38:27.307Z,70.10
2019-05-17T22:40:57.476Z,70.50
2019-05-17T22:43:28.102Z,70.40
2019-05-17T22:45:59.598Z,71.00
2019-05-17T22:48:29.766Z,71.00
2019-05-17T22:51:01.051Z,71.40
2019-05-17T22:53:32.134Z,71.70
2019-05-17T22:56:02.518Z,72.30
2019-05-17T22:58:33.648Z,72.60
2019-05-17T23:01:03.829Z,73.60
2019-05-17T23:03:33.870Z,74.00
2019-05-17T23:06:04.200Z,74.10
2019-05-17T23:08:34.339Z,74.20
2019-05-17T23:11:04.383Z,74.70
2019-05-17T23:13:34.229Z,74.10
2019-05-17T23:16:06.196Z,73.60
2019-05-17T23:18:36.123Z,73.50
2019-05-17T23:21:06.343Z,73.10
2019-05-17T23:23:36.437Z,73.50
2019-05-17T23:26:06.600Z,74.00
2019-05-17T23:28:36.816Z,74.70
2019-05-17T23:31:06.738Z,74.60
2019-05-17T23:33:36.565Z,74.50
2019-05-17T23:36:06.778Z,75.00
2019-05-17T23:38:36.612Z,74.50
2019-05-17T23:41:06.608Z,74.20
2019-05-17T23:43:36.506Z,73.80
2019-05-17T23:46:06.455Z,73.40
2019-05-17T23:48:36.560Z,73.50
2019-05-17T23:51:06.812Z,74.40
2019-05-17T23:53:36.913Z,74.40
2019-05-17T23:56:07.160Z,75.30
2019-05-17T23:58:37.367Z,75.50
